Time;durP1;ratioP1;P1;durP2;ratioP2;P2;SDS_P1;SDS_P2;PMS_P1;PMS_P2;Temp;Humidity;BMP_temperature;BMP_pressure;BME280_temperature;BME280_humidity;BME280_pressure;Samples;Min_cycle;Max_cycle;Signal;HPM_P1;HPM_P2
2022/03/17 00:00:09;;;;;;;;;;;6.00;99.90;;;;;;5096004;28;20049;-41
2022/03/17 00:02:35;;;;;;;;;;;6.00;99.90;;;;;;5095521;28;19908;-41
2022/03/17 00:05:02;;;;;;;;;;;6.00;99.90;;;;;;5095539;28;20262;-42
2022/03/17 00:07:28;;;;;;;;;;;6.00;99.90;;;;;;5095838;28;19912;-42
2022/03/17 00:09:54;;;;;;;;;;;6.00;99.90;;;;;;5095682;28;20243;-41
2022/03/17 00:12:19;;;;;;;;;;;6.00;99.90;;;;;;5095486;28;19930;-42
2022/03/17 00:14:45;;;;;;;;;;;6.00;99.90;;;;;;5094254;28;19919;-41
2022/03/17 00:17:11;;;;;;;;;;;6.00;99.90;;;;;;5095716;28;19931;-41
2022/03/17 00:19:37;;;;;;;;;;;6.00;99.90;;;;;;5095691;28;19953;-41
2022/03/17 00:22:05;;;;;;;;;;;6.00;99.90;;;;;;5095267;28;19995;-42
2022/03/17 00:24:31;;;;;;;;;;;5.90;99.90;;;;;;5094287;28;20359;-42
2022/03/17 00:26:56;;;;;;;;;;;6.00;99.90;;;;;;5095516;28;19912;-42
2022/03/17 00:29:22;;;;;;;;;;;6.00;99.90;;;;;;5095147;28;20430;-42
2022/03/17 00:31:47;;;;;;;;;;;6.00;99.90;;;;;;5095159;28;19917;-41
2022/03/17 00:34:13;;;;;;;;;;;6.00;99.90;;;;;;5095149;28;19918;-42
2022/03/17 00:36:38;;;;;;;;;;;5.90;99.90;;;;;;5094978;28;19915;-41
2022/03/17 00:39:04;;;;;;;;;;;5.90;99.90;;;;;;5095028;28;19912;-40
2022/03/17 00:41:30;;;;;;;;;;;5.90;99.90;;;;;;5093934;28;20418;-42
2022/03/17 00:43:56;;;;;;;;;;;5.90;99.90;;;;;;5094896;28;20006;-42
2022/03/17 00:46:21;;;;;;;;;;;5.90;99.90;;;;;;5094992;28;20009;-41
2022/03/17 00:48:47;;;;;;;;;;;5.90;99.90;;;;;;5094706;28;19908;-40
2022/03/17 00:51:13;;;;;;;;;;;5.90;99.90;;;;;;5094953;28;19916;-41
2022/03/17 00:53:38;;;;;;;;;;;5.90;99.90;;;;;;5094858;28;20029;-41
2022/03/17 00:56:04;;;;;;;;;;;5.90;99.90;;;;;;5094561;28;19908;-41
2022/03/17 00:58:30;;;;;;;;;;;5.90;99.90;;;;;;5094703;28;19915;-41
2022/03/17 01:00:56;;;;;;;;;;;5.80;99.90;;;;;;5095168;28;19972;-40
2022/03/17 01:03:21;;;;;;;;;;;5.80;99.90;;;;;;5094861;28;19923;-41
2022/03/17 01:05:47;;;;;;;;;;;5.80;99.90;;;;;;5093481;28;20374;-41
2022/03/17 01:08:13;;;;;;;;;;;5.80;99.90;;;;;;5094425;28;19915;-41
2022/03/17 01:10:39;;;;;;;;;;;5.80;99.90;;;;;;5094575;28;19915;-41
2022/03/17 01:13:05;;;;;;;;;;;5.80;99.90;;;;;;5094640;28;19968;-42
2022/03/17 01:15:30;;;;;;;;;;;5.80;99.90;;;;;;5094344;28;20269;-40
2022/03/17 01:17:56;;;;;;;;;;;5.80;99.90;;;;;;5094485;28;19965;-41
2022/03/17 01:20:21;;;;;;;;;;;5.80;99.90;;;;;;5094156;28;20012;-41
2022/03/17 01:22:47;;;;;;;;;;;5.80;99.90;;;;;;5093179;28;19908;-41
2022/03/17 01:25:13;;;;;;;;;;;5.80;99.90;;;;;;5094107;28;19931;-41
2022/03/17 01:27:38;;;;;;;;;;;5.70;99.90;;;;;;5094430;28;20009;-41
2022/03/17 01:30:05;;;;;;;;;;;5.70;99.90;;;;;;5094257;28;20010;-41
2022/03/17 01:32:32;;;;;;;;;;;5.70;99.90;;;;;;5094298;28;19961;-42
2022/03/17 01:34:59;;;;;;;;;;;5.70;99.90;;;;;;5094045;28;20385;-40
2022/03/17 01:37:24;;;;;;;;;;;5.70;99.90;;;;;;5094457;28;19909;-41
2022/03/17 01:39:50;;;;;;;;;;;5.70;99.90;;;;;;5094092;28;19915;-40
2022/03/17 01:42:15;;;;;;;;;;;5.70;99.90;;;;;;5094036;28;19920;-41
2022/03/17 01:44:41;;;;;;;;;;;5.70;99.90;;;;;;5094180;28;19908;-41
2022/03/17 01:49:51;;;;;;;;;;;5.60;99.90;;;;;;5093860;28;20384;-40
2022/03/17 01:52:17;;;;;;;;;;;5.60;99.90;;;;;;5094122;28;19930;-41
2022/03/17 01:54:43;;;;;;;;;;;5.60;99.90;;;;;;5093797;28;20001;-41
2022/03/17 01:57:09;;;;;;;;;;;5.60;99.90;;;;;;5093846;28;20281;-41
2022/03/17 01:59:36;;;;;;;;;;;5.60;99.90;;;;;;5098072;28;20353;-41
2022/03/17 02:02:03;;;;;;;;;;;5.60;99.90;;;;;;5101012;28;19962;-42
2022/03/17 02:04:29;;;;;;;;;;;5.50;99.90;;;;;;5100429;28;20309;-41
2022/03/17 02:06:55;;;;;;;;;;;5.60;99.90;;;;;;5100670;28;19908;-40
2022/03/17 02:09:23;;;;;;;;;;;5.60;99.90;;;;;;5100903;28;19908;-40
2022/03/17 02:14:34;;;;;;;;;;;5.60;99.90;;;;;;5100479;28;19916;-42
2022/03/17 02:16:59;;;;;;;;;;;5.60;99.90;;;;;;5100638;28;20342;-41
2022/03/17 02:19:25;;;;;;;;;;;5.60;99.90;;;;;;5100357;28;19973;-41
2022/03/17 02:21:51;;;;;;;;;;;5.50;99.90;;;;;;5100178;28;19915;-41
2022/03/17 02:27:01;;;;;;;;;;;5.60;99.90;;;;;;5100277;28;19970;-41
2022/03/17 02:29:27;;;;;;;;;;;5.60;99.90;;;;;;5100504;28;19920;-41
2022/03/17 02:31:53;;;;;;;;;;;5.50;99.90;;;;;;5100489;28;19923;-41
2022/03/17 02:34:19;;;;;;;;;;;5.50;99.90;;;;;;5100086;28;19915;-41
2022/03/17 02:36:49;;;;;;;;;;;5.50;99.90;;;;;;5100016;28;19948;-41
2022/03/17 02:39:15;;;;;;;;;;;5.50;99.90;;;;;;5100037;28;19908;-41
2022/03/17 02:41:40;;;;;;;;;;;5.50;99.90;;;;;;5100608;28;19964;-41
2022/03/17 02:44:06;;;;;;;;;;;5.50;99.90;;;;;;5100116;28;19938;-40
2022/03/17 02:46:31;;;;;;;;;;;5.40;99.90;;;;;;5100304;28;20262;-41
2022/03/17 02:48:57;;;;;;;;;;;5.40;99.90;;;;;;5100017;28;19960;-41
2022/03/17 02:51:22;;;;;;;;;;;5.50;99.90;;;;;;5100149;28;20037;-41
2022/03/17 02:53:48;;;;;;;;;;;5.40;99.90;;;;;;5099896;28;19991;-40
2022/03/17 02:56:14;;;;;;;;;;;5.40;99.90;;;;;;5100216;28;19951;-41
2022/03/17 02:58:39;;;;;;;;;;;5.40;99.90;;;;;;5085224;28;20271;-41
2022/03/17 03:01:05;;;;;;;;;;;5.40;99.90;;;;;;5078177;28;19995;-41
2022/03/17 03:03:30;;;;;;;;;;;5.40;99.90;;;;;;5077793;28;19950;-41
2022/03/17 03:05:56;;;;;;;;;;;5.40;99.90;;;;;;5077807;28;20019;-40
2022/03/17 03:08:21;;;;;;;;;;;5.40;99.90;;;;;;5077441;28;19958;-42
2022/03/17 03:10:47;;;;;;;;;;;5.40;99.90;;;;;;5075739;28;19918;-42
2022/03/17 03:13:13;;;;;;;;;;;5.50;99.90;;;;;;5074212;28;19915;-43
2022/03/17 03:15:39;;;;;;;;;;;5.40;99.90;;;;;;5074811;28;20204;-41
2022/03/17 03:18:05;;;;;;;;;;;5.40;99.90;;;;;;5076543;28;19909;-41
2022/03/17 03:20:31;;;;;;;;;;;5.40;99.90;;;;;;5075338;28;19958;-41
2022/03/17 03:22:57;;;;;;;;;;;5.40;99.90;;;;;;5076443;28;20285;-41
2022/03/17 03:25:22;;;;;;;;;;;5.40;99.90;;;;;;5089598;28;19920;-41
2022/03/17 03:27:48;;;;;;;;;;;5.40;99.90;;;;;;5113797;28;20366;-41
2022/03/17 03:30:14;;;;;;;;;;;5.40;99.90;;;;;;5113000;28;20355;-41
2022/03/17 03:32:41;;;;;;;;;;;5.40;99.90;;;;;;5096237;28;19908;-41
2022/03/17 03:37:51;;;;;;;;;;;5.40;99.90;;;;;;5096189;28;20281;-44
2022/03/17 03:40:16;;;;;;;;;;;5.40;99.90;;;;;;5096421;28;19912;-41
2022/03/17 03:42:42;;;;;;;;;;;5.40;99.90;;;;;;5097352;28;19913;-41
2022/03/17 03:45:07;;;;;;;;;;;5.40;99.90;;;;;;5095888;28;19915;-40
2022/03/17 03:47:33;;;;;;;;;;;5.40;99.90;;;;;;5096300;28;19908;-41
2022/03/17 03:49:59;;;;;;;;;;;5.40;99.90;;;;;;5096145;28;19908;-43
2022/03/17 03:52:24;;;;;;;;;;;5.40;99.90;;;;;;5095684;28;19912;-41
2022/03/17 03:54:49;;;;;;;;;;;5.30;99.90;;;;;;5116338;28;19908;-41
2022/03/17 03:57:15;;;;;;;;;;;5.30;99.90;;;;;;5108614;28;20359;-42
2022/03/17 03:59:42;;;;;;;;;;;5.30;99.90;;;;;;5093992;28;19916;-42
2022/03/17 04:02:09;;;;;;;;;;;5.30;99.90;;;;;;5093595;28;19908;-41
2022/03/17 04:04:35;;;;;;;;;;;5.20;99.90;;;;;;5093593;28;20262;-40
2022/03/17 04:07:01;;;;;;;;;;;5.20;99.90;;;;;;5093709;28;19915;-41
2022/03/17 04:09:28;;;;;;;;;;;5.30;99.90;;;;;;5093296;28;19931;-43
2022/03/17 04:11:54;;;;;;;;;;;5.20;99.90;;;;;;5093466;28;19928;-41
2022/03/17 04:14:20;;;;;;;;;;;5.20;99.90;;;;;;5094095;28;20368;-40
2022/03/17 04:16:46;;;;;;;;;;;5.10;99.90;;;;;;5095354;28;19916;-40
2022/03/17 04:19:12;;;;;;;;;;;5.20;99.90;;;;;;5094569;28;20326;-45
2022/03/17 04:21:38;;;;;;;;;;;5.20;99.90;;;;;;5095078;28;20331;-41
2022/03/17 04:24:04;;;;;;;;;;;5.20;99.90;;;;;;5095251;28;20355;-42
2022/03/17 04:26:29;;;;;;;;;;;5.20;99.90;;;;;;5095108;28;20427;-41
2022/03/17 04:28:55;;;;;;;;;;;5.10;99.90;;;;;;5093120;28;19920;-41
2022/03/17 04:31:20;;;;;;;;;;;5.10;99.90;;;;;;5095185;28;19916;-40
2022/03/17 04:33:46;;;;;;;;;;;5.20;99.90;;;;;;5094486;28;19924;-41
2022/03/17 04:36:12;;;;;;;;;;;5.20;99.90;;;;;;5094842;28;20000;-41
2022/03/17 04:38:38;;;;;;;;;;;5.20;99.90;;;;;;5094950;28;20374;-42
2022/03/17 04:41:04;;;;;;;;;;;5.20;99.90;;;;;;5095237;28;19908;-41
2022/03/17 04:43:30;;;;;;;;;;;5.20;99.90;;;;;;5094934;28;19912;-41
2022/03/17 04:45:55;;;;;;;;;;;5.20;99.90;;;;;;5095044;28;20289;-42
2022/03/17 04:48:21;;;;;;;;;;;5.20;99.90;;;;;;5094415;28;20320;-41
2022/03/17 04:50:46;;;;;;;;;;;5.20;99.90;;;;;;5094483;28;19920;-41
2022/03/17 04:53:27;;;;;;;;;;;5.40;99.90;;;;;;5094182;28;19920;-41
2022/03/17 04:55:53;;;;;;;;;;;5.40;99.90;;;;;;5094763;28;19951;-41
2022/03/17 04:58:18;;;;;;;;;;;5.40;99.90;;;;;;5094451;28;19912;-42
2022/03/17 05:00:44;;;;;;;;;;;5.50;99.90;;;;;;5094311;28;19916;-42
2022/03/17 05:03:10;;;;;;;;;;;5.50;99.90;;;;;;5094262;28;19915;-42
2022/03/17 05:05:36;;;;;;;;;;;5.50;99.90;;;;;;5094289;28;19912;-41
2022/03/17 05:08:01;;;;;;;;;;;5.50;99.90;;;;;;5093900;28;20251;-40
2022/03/17 05:10:30;;;;;;;;;;;5.60;99.90;;;;;;5094299;28;19962;-42
2022/03/17 05:12:56;;;;;;;;;;;5.60;99.90;;;;;;5075519;28;19944;-41
2022/03/17 05:15:22;;;;;;;;;;;5.60;99.90;;;;;;5094337;28;19912;-40
2022/03/17 05:17:48;;;;;;;;;;;5.60;99.90;;;;;;5094249;28;19984;-42
2022/03/17 05:20:14;;;;;;;;;;;5.50;99.90;;;;;;5093772;28;19919;-42
2022/03/17 05:22:40;;;;;;;;;;;5.60;99.90;;;;;;5094349;28;19943;-40
2022/03/17 05:25:09;;;;;;;;;;;5.60;99.90;;;;;;5102959;28;20419;-42
2022/03/17 05:27:36;;;;;;;;;;;5.60;99.90;;;;;;5094199;28;19955;-41
2022/03/17 05:30:03;;;;;;;;;;;5.70;99.90;;;;;;5092259;28;19931;-40
2022/03/17 05:32:28;;;;;;;;;;;5.60;99.90;;;;;;5094029;28;19918;-42
2022/03/17 05:34:54;;;;;;;;;;;5.60;99.90;;;;;;5077296;28;19912;-42
2022/03/17 05:37:19;;;;;;;;;;;5.60;99.90;;;;;;5073688;28;19915;-41
2022/03/17 05:39:45;;;;;;;;;;;5.50;99.90;;;;;;5080899;28;19912;-42
2022/03/17 05:42:10;;;;;;;;;;;5.60;99.90;;;;;;5106248;28;19963;-41
2022/03/17 05:44:36;;;;;;;;;;;5.60;99.90;;;;;;5074001;28;19917;-43
2022/03/17 05:47:02;;;;;;;;;;;5.60;99.90;;;;;;5088742;28;20286;-40
2022/03/17 05:49:28;;;;;;;;;;;5.70;99.90;;;;;;5078182;28;19936;-40
2022/03/17 05:51:53;;;;;;;;;;;5.60;99.90;;;;;;5084651;28;19952;-41
2022/03/17 05:54:19;;;;;;;;;;;5.50;99.90;;;;;;5093403;28;20344;-42
2022/03/17 05:56:44;;;;;;;;;;;5.60;99.90;;;;;;5093776;28;19908;-42
2022/03/17 05:59:10;;;;;;;;;;;5.60;99.90;;;;;;5093699;28;20359;-41
2022/03/17 06:01:35;;;;;;;;;;;5.60;99.90;;;;;;5093012;28;20583;-42
2022/03/17 06:04:02;;;;;;;;;;;5.70;99.90;;;;;;5092752;28;19912;-45
2022/03/17 06:06:27;;;;;;;;;;;5.80;99.90;;;;;;5093176;28;19919;-43
2022/03/17 06:08:53;;;;;;;;;;;5.80;99.90;;;;;;5092927;28;19912;-43
2022/03/17 06:11:18;;;;;;;;;;;5.90;99.90;;;;;;5092678;28;19939;-42
2022/03/17 06:13:44;;;;;;;;;;;5.80;99.90;;;;;;5092636;28;19961;-41
2022/03/17 06:16:10;;;;;;;;;;;5.90;99.90;;;;;;5099871;28;20006;-42
2022/03/17 06:18:35;;;;;;;;;;;6.10;99.90;;;;;;5092138;28;20345;-40
2022/03/17 06:21:01;;;;;;;;;;;6.20;99.90;;;;;;5090919;28;19919;-44
2022/03/17 06:23:26;;;;;;;;;;;6.20;99.90;;;;;;5093411;28;19919;-40
2022/03/17 06:25:53;;;;;;;;;;;6.20;99.90;;;;;;5092286;28;19912;-41
2022/03/17 06:28:18;;;;;;;;;;;6.40;99.90;;;;;;5092687;28;19919;-42
2022/03/17 06:30:44;;;;;;;;;;;6.40;99.90;;;;;;5090658;28;19928;-41
2022/03/17 06:33:10;;;;;;;;;;;6.40;99.90;;;;;;5112786;28;19954;-41
2022/03/17 06:35:36;;;;;;;;;;;6.50;99.90;;;;;;5113351;28;19908;-41
2022/03/17 06:38:03;;;;;;;;;;;6.50;99.90;;;;;;5113202;28;19912;-42
2022/03/17 06:40:29;;;;;;;;;;;6.60;99.90;;;;;;5112881;28;19908;-42
2022/03/17 06:42:55;;;;;;;;;;;6.50;99.90;;;;;;5112780;28;19976;-42
2022/03/17 06:45:21;;;;;;;;;;;6.50;99.90;;;;;;5114786;28;20393;-41
2022/03/17 06:47:46;;;;;;;;;;;6.60;99.90;;;;;;5117000;28;20226;-41
2022/03/17 06:50:12;;;;;;;;;;;6.60;99.90;;;;;;5117473;28;20010;-41
2022/03/17 06:52:38;;;;;;;;;;;6.80;99.90;;;;;;5116937;28;20322;-42
2022/03/17 06:55:04;;;;;;;;;;;6.90;99.90;;;;;;5116869;28;20368;-40
2022/03/17 06:57:30;;;;;;;;;;;7.00;99.90;;;;;;5116601;28;20299;-41
2022/03/17 06:59:55;;;;;;;;;;;7.10;99.90;;;;;;5116533;28;19915;-40
2022/03/17 07:02:21;;;;;;;;;;;7.20;99.90;;;;;;5116287;28;19952;-41
2022/03/17 07:04:46;;;;;;;;;;;7.20;99.90;;;;;;5116302;28;19935;-41
2022/03/17 07:07:12;;;;;;;;;;;7.30;99.90;;;;;;5116932;28;19951;-41
2022/03/17 07:09:38;;;;;;;;;;;7.40;99.90;;;;;;5116780;28;19951;-44
2022/03/17 07:12:04;;;;;;;;;;;7.40;99.90;;;;;;5116100;28;19916;-42
2022/03/17 07:14:30;;;;;;;;;;;7.50;99.90;;;;;;5114798;28;19908;-41
2022/03/17 07:16:55;;;;;;;;;;;7.50;99.90;;;;;;5116067;28;20263;-42
2022/03/17 07:19:21;;;;;;;;;;;7.50;99.90;;;;;;5116018;28;20219;-41
2022/03/17 07:21:47;;;;;;;;;;;7.50;99.90;;;;;;5116312;28;20345;-42
2022/03/17 07:24:12;;;;;;;;;;;7.60;99.90;;;;;;5116508;28;19907;-41
2022/03/17 07:26:41;;;;;;;;;;;7.70;99.90;;;;;;5116297;28;19908;-41
2022/03/17 07:29:06;;;;;;;;;;;7.80;99.90;;;;;;5115967;28;20426;-42
2022/03/17 07:31:32;;;;;;;;;;;7.80;99.90;;;;;;5115972;28;20018;-42
2022/03/17 07:33:59;;;;;;;;;;;7.70;99.90;;;;;;5115966;28;20006;-42
2022/03/17 07:36:25;;;;;;;;;;;7.90;99.90;;;;;;5115841;28;19931;-41
2022/03/17 07:38:50;;;;;;;;;;;8.00;99.90;;;;;;5115720;28;20396;-41
2022/03/17 07:41:16;;;;;;;;;;;8.00;99.90;;;;;;5116454;28;19912;-41
2022/03/17 07:43:43;;;;;;;;;;;8.00;99.90;;;;;;5115698;28;20251;-42
2022/03/17 07:46:09;;;;;;;;;;;8.00;99.90;;;;;;5115845;28;19915;-41
2022/03/17 07:48:35;;;;;;;;;;;8.20;99.90;;;;;;5116122;28;19908;-41
2022/03/17 07:51:01;;;;;;;;;;;8.30;99.90;;;;;;5115412;28;19916;-41
2022/03/17 07:53:26;;;;;;;;;;;8.40;99.90;;;;;;5115757;28;20275;-41
2022/03/17 07:55:54;;;;;;;;;;;8.60;99.90;;;;;;5115335;28;19908;-41
2022/03/17 07:58:24;;;;;;;;;;;8.60;99.90;;;;;;5114884;28;20366;-40
2022/03/17 08:00:53;;;;;;;;;;;8.70;99.90;;;;;;5115234;28;20281;-41
2022/03/17 08:03:19;;;;;;;;;;;8.80;99.90;;;;;;5115606;28;19908;-40
2022/03/17 08:05:48;;;;;;;;;;;8.80;99.90;;;;;;5114256;28;19980;-41
2022/03/17 08:08:17;;;;;;;;;;;8.80;99.90;;;;;;5115061;28;20274;-41
2022/03/17 08:10:43;;;;;;;;;;;8.80;99.90;;;;;;5115670;28;19922;-42
2022/03/17 08:13:09;;;;;;;;;;;8.90;99.90;;;;;;5115810;28;19912;-41
2022/03/17 08:15:38;;;;;;;;;;;9.00;99.90;;;;;;5115614;28;19908;-41
2022/03/17 08:18:04;;;;;;;;;;;9.10;99.90;;;;;;5115219;28;19982;-41
2022/03/17 08:20:30;;;;;;;;;;;9.30;99.90;;;;;;5114015;28;19908;-41
2022/03/17 08:22:56;;;;;;;;;;;9.30;99.90;;;;;;5115055;28;19915;-41
2022/03/17 08:25:21;;;;;;;;;;;9.30;99.90;;;;;;5115126;28;19907;-40
2022/03/17 08:27:50;;;;;;;;;;;9.40;99.90;;;;;;5115062;28;19961;-41
2022/03/17 08:30:15;;;;;;;;;;;9.40;99.90;;;;;;5113300;28;19970;-41
2022/03/17 08:32:41;;;;;;;;;;;9.50;99.90;;;;;;5115217;28;19943;-41
2022/03/17 08:35:07;;;;;;;;;;;9.60;99.90;;;;;;5115173;28;20295;-41
2022/03/17 08:37:37;;;;;;;;;;;9.60;99.90;;;;;;5114990;28;19908;-42
2022/03/17 08:40:03;;;;;;;;;;;9.50;99.90;;;;;;5115396;28;19972;-42
2022/03/17 08:42:29;;;;;;;;;;;9.60;99.90;;;;;;5115308;28;20314;-41
2022/03/17 08:44:55;;;;;;;;;;;9.60;99.90;;;;;;5114821;28;19908;-41
2022/03/17 08:50:05;;;;;;;;;;;9.50;99.90;;;;;;5114788;28;20319;-41
2022/03/17 08:52:31;;;;;;;;;;;9.30;99.90;;;;;;5114702;28;19915;-41
2022/03/17 08:54:56;;;;;;;;;;;9.60;99.90;;;;;;5114911;28;19911;-40
2022/03/17 08:57:22;;;;;;;;;;;9.50;99.90;;;;;;5113530;28;20336;-40
2022/03/17 08:59:48;;;;;;;;;;;9.60;99.90;;;;;;5114598;28;19908;-41
2022/03/17 09:02:14;;;;;;;;;;;9.70;99.90;;;;;;5114653;28;19914;-41
2022/03/17 09:04:40;;;;;;;;;;;10.00;99.90;;;;;;5114460;28;19914;-41
2022/03/17 09:07:05;;;;;;;;;;;9.90;99.90;;;;;;5114984;28;19912;-41
2022/03/17 09:09:32;;;;;;;;;;;10.00;99.90;;;;;;5114161;28;19908;-40
2022/03/17 09:11:58;;;;;;;;;;;9.80;99.90;;;;;;5114424;28;19918;-40
2022/03/17 09:14:24;;;;;;;;;;;9.80;99.90;;;;;;5113839;28;19912;-41
2022/03/17 09:16:49;;;;;;;;;;;9.90;99.90;;;;;;5114311;28;20268;-39
2022/03/17 09:19:15;;;;;;;;;;;10.10;99.90;;;;;;5114330;28;19912;-41
2022/03/17 09:21:41;;;;;;;;;;;10.10;99.90;;;;;;5114433;28;19915;-43
2022/03/17 09:24:06;;;;;;;;;;;10.30;99.90;;;;;;5114530;28;19980;-40
2022/03/17 09:26:32;;;;;;;;;;;10.30;99.90;;;;;;5114266;28;19915;-41
2022/03/17 09:28:58;;;;;;;;;;;10.20;99.90;;;;;;5114587;28;19912;-42
2022/03/17 09:31:23;;;;;;;;;;;10.30;99.90;;;;;;5114129;28;19927;-41
2022/03/17 09:33:49;;;;;;;;;;;10.40;99.90;;;;;;5114066;28;19951;-41
2022/03/17 09:36:16;;;;;;;;;;;10.40;99.90;;;;;;5113870;28;19931;-40
2022/03/17 09:38:42;;;;;;;;;;;10.70;99.90;;;;;;5113936;28;19967;-41
2022/03/17 09:41:24;;;;;;;;;;;10.50;99.90;;;;;;5114656;28;19914;-42
2022/03/17 09:43:51;;;;;;;;;;;10.60;99.90;;;;;;5114292;28;20007;-42
2022/03/17 09:46:17;;;;;;;;;;;10.80;99.90;;;;;;5112931;28;19912;-41
2022/03/17 09:48:43;;;;;;;;;;;10.80;99.90;;;;;;5114505;28;19914;-42
2022/03/17 09:51:09;;;;;;;;;;;10.70;99.90;;;;;;5114031;28;19916;-41
2022/03/17 09:53:35;;;;;;;;;;;10.80;99.90;;;;;;5113743;28;20343;-42
2022/03/17 09:56:01;;;;;;;;;;;11.00;99.90;;;;;;5114192;28;20002;-41
2022/03/17 09:58:26;;;;;;;;;;;11.20;99.90;;;;;;5113699;28;20374;-41
2022/03/17 10:00:53;;;;;;;;;;;11.20;99.90;;;;;;5113999;28;20274;-40
2022/03/17 10:03:20;;;;;;;;;;;11.20;99.90;;;;;;5114015;28;19908;-42
2022/03/17 10:05:46;;;;;;;;;;;11.40;99.90;;;;;;5114208;28;20327;-40
2022/03/17 10:08:14;;;;;;;;;;;11.50;99.90;;;;;;5113937;28;19966;-41
2022/03/17 10:10:40;;;;;;;;;;;11.40;99.90;;;;;;5113607;28;19924;-41
2022/03/17 10:13:19;;;;;;;;;;;11.50;99.90;;;;;;5113464;28;19907;-41
2022/03/17 10:15:46;;;;;;;;;;;11.80;99.90;;;;;;5112510;28;20376;-41
2022/03/17 10:18:36;;;;;;;;;;;11.70;99.90;;;;;;5112297;28;20349;-42
2022/03/17 10:21:05;;;;;;;;;;;12.00;99.90;;;;;;5116503;28;19912;-46
2022/03/17 10:23:30;;;;;;;;;;;12.00;99.90;;;;;;5117505;28;19908;-42
2022/03/17 10:25:57;;;;;;;;;;;11.80;99.90;;;;;;5117259;28;19927;-41
2022/03/17 10:28:26;;;;;;;;;;;12.20;99.90;;;;;;5117294;28;20270;-41
2022/03/17 10:31:04;;;;;;;;;;;12.00;99.90;;;;;;5117373;28;19924;-42
2022/03/17 10:33:31;;;;;;;;;;;11.60;99.90;;;;;;5117542;28;19914;-42
2022/03/17 10:36:12;;;;;;;;;;;11.80;99.90;;;;;;5117283;27;19965;-42
2022/03/17 10:38:44;;;;;;;;;;;12.10;99.90;;;;;;5117698;28;19908;-41
2022/03/17 10:41:12;;;;;;;;;;;12.10;99.90;;;;;;5116185;28;19960;-42
2022/03/17 10:43:42;;;;;;;;;;;12.40;99.90;;;;;;5117487;28;19912;-41
2022/03/17 10:46:07;;;;;;;;;;;12.40;99.90;;;;;;5115630;28;20387;-41
2022/03/17 10:48:33;;;;;;;;;;;12.50;99.90;;;;;;5116970;28;19908;-43
2022/03/17 10:50:59;;;;;;;;;;;12.50;99.90;;;;;;5116700;28;19964;-41
2022/03/17 10:53:28;;;;;;;;;;;12.60;99.90;;;;;;5116157;28;19918;-42
2022/03/17 10:56:01;;;;;;;;;;;12.50;99.90;;;;;;5117491;28;19915;-41
2022/03/17 10:58:27;;;;;;;;;;;12.60;99.90;;;;;;5116897;28;20314;-41
2022/03/17 11:00:55;;;;;;;;;;;12.50;99.90;;;;;;5116768;28;19915;-41
2022/03/17 11:03:21;;;;;;;;;;;12.60;99.90;;;;;;5116952;28;19961;-41
2022/03/17 11:05:50;;;;;;;;;;;12.60;99.90;;;;;;5116474;28;19919;-42
2022/03/17 11:08:16;;;;;;;;;;;12.50;99.90;;;;;;5116686;28;20027;-40
2022/03/17 11:10:42;;;;;;;;;;;12.20;99.90;;;;;;5116849;28;20331;-42
2022/03/17 11:13:11;;;;;;;;;;;12.10;99.90;;;;;;5117131;28;19915;-41
2022/03/17 11:15:38;;;;;;;;;;;11.80;99.90;;;;;;5116201;28;20362;-41
2022/03/17 11:18:24;;;;;;;;;;;11.90;99.90;;;;;;5116544;28;19914;-41
2022/03/17 11:21:10;;;;;;;;;;;12.10;99.90;;;;;;5116169;27;20363;-43
2022/03/17 11:23:49;;;;;;;;;;;12.20;99.90;;;;;;5115804;28;19919;-41
2022/03/17 11:26:20;;;;;;;;;;;11.70;99.90;;;;;;5116086;28;20226;-41
2022/03/17 11:28:47;;;;;;;;;;;11.80;99.90;;;;;;5116040;28;19943;-41
2022/03/17 11:31:17;;;;;;;;;;;11.90;99.90;;;;;;5114562;28;20358;-40
2022/03/17 11:33:43;;;;;;;;;;;12.10;99.90;;;;;;5116024;28;19907;-42
2022/03/17 11:36:08;;;;;;;;;;;12.30;99.90;;;;;;5115773;28;20411;-40
2022/03/17 11:38:38;;;;;;;;;;;12.30;99.90;;;;;;5115763;28;19915;-42
2022/03/17 11:41:08;;;;;;;;;;;12.20;99.90;;;;;;5115745;28;19908;-41
2022/03/17 11:43:45;;;;;;;;;;;12.20;99.90;;;;;;5115628;28;19970;-41
2022/03/17 11:46:20;;;;;;;;;;;11.70;99.90;;;;;;5116056;28;19931;-42
2022/03/17 11:48:47;;;;;;;;;;;11.50;99.90;;;;;;5115728;28;19915;-42
2022/03/17 11:51:13;;;;;;;;;;;11.50;99.90;;;;;;5115701;28;20326;-41
2022/03/17 11:53:39;;;;;;;;;;;11.80;99.90;;;;;;5115341;28;20045;-41
2022/03/17 11:56:05;;;;;;;;;;;11.80;99.90;;;;;;5115416;28;19973;-43
2022/03/17 11:58:33;;;;;;;;;;;11.20;99.90;;;;;;5115788;28;19915;-41
2022/03/17 12:01:17;;;;;;;;;;;11.20;99.90;;;;;;5115541;28;19908;-41
2022/03/17 12:03:44;;;;;;;;;;;11.20;99.90;;;;;;5115651;28;19908;-42
2022/03/17 12:06:13;;;;;;;;;;;11.40;99.90;;;;;;5115724;28;19912;-41
2022/03/17 12:09:02;;;;;;;;;;;11.60;99.90;;;;;;5115167;28;19908;-42
2022/03/17 12:11:30;;;;;;;;;;;12.00;99.90;;;;;;5111686;28;19920;-40
2022/03/17 12:14:14;;;;;;;;;;;12.30;99.90;;;;;;5115014;28;20477;-41
2022/03/17 12:17:01;;;;;;;;;;;12.30;99.90;;;;;;5114816;28;19944;-41
2022/03/17 12:19:27;;;;;;;;;;;12.50;99.90;;;;;;5110813;28;20377;-42
2022/03/17 12:22:00;;;;;;;;;;;12.50;99.90;;;;;;5114824;28;19908;-41
2022/03/17 12:24:41;;;;;;;;;;;12.60;99.90;;;;;;5113855;28;19930;-49
2022/03/17 12:27:09;;;;;;;;;;;12.60;99.90;;;;;;5114838;28;19919;-42
2022/03/17 12:29:36;;;;;;;;;;;12.60;99.90;;;;;;5114791;28;19998;-42
2022/03/17 12:32:09;;;;;;;;;;;12.60;99.90;;;;;;5114916;28;20019;-41
2022/03/17 12:34:35;;;;;;;;;;;12.40;99.90;;;;;;5115173;28;19908;-41
2022/03/17 12:37:01;;;;;;;;;;;12.40;99.90;;;;;;5114877;28;19915;-40
2022/03/17 12:39:31;;;;;;;;;;;12.20;99.90;;;;;;5115570;28;20390;-42
2022/03/17 12:41:57;;;;;;;;;;;12.30;99.90;;;;;;5114642;28;19912;-41
2022/03/17 12:44:23;;;;;;;;;;;11.50;99.90;;;;;;5114622;28;19950;-41
2022/03/17 12:46:49;;;;;;;;;;;11.70;99.90;;;;;;5114685;28;19940;-42
2022/03/17 12:49:14;;;;;;;;;;;11.70;99.90;;;;;;5114646;28;20247;-42
2022/03/17 12:51:40;;;;;;;;;;;11.90;99.90;;;;;;5114639;28;20261;-41
2022/03/17 12:54:05;;;;;;;;;;;11.90;99.90;;;;;;5114699;28;19908;-41
2022/03/17 12:56:45;;;;;;;;;;;12.10;99.90;;;;;;5114978;28;20357;-41
2022/03/17 12:59:10;;;;;;;;;;;12.20;99.90;;;;;;5113654;28;19908;-42
2022/03/17 13:01:39;;;;;;;;;;;12.20;99.90;;;;;;5114760;28;20002;-42
2022/03/17 13:04:05;;;;;;;;;;;11.50;99.90;;;;;;5114421;28;20374;-42
2022/03/17 13:09:14;;;;;;;;;;;11.60;99.90;;;;;;5114363;28;19914;-41
2022/03/17 13:14:25;;;;;;;;;;;12.20;99.90;;;;;;5114102;28;20251;-42
2022/03/17 13:16:58;;;;;;;;;;;12.40;99.90;;;;;;5114131;28;19912;-42
2022/03/17 13:19:23;;;;;;;;;;;12.40;99.90;;;;;;5114424;28;20004;-41
2022/03/17 13:21:51;;;;;;;;;;;12.20;99.90;;;;;;5114054;28;19915;-41
2022/03/17 13:24:17;;;;;;;;;;;12.00;99.90;;;;;;5114299;28;19955;-41
2022/03/17 13:26:42;;;;;;;;;;;12.00;99.90;;;;;;5113833;28;19919;-41
2022/03/17 13:29:13;;;;;;;;;;;12.00;99.90;;;;;;5112260;28;19908;-41
2022/03/17 13:31:43;;;;;;;;;;;12.10;99.90;;;;;;5112753;28;19916;-42
2022/03/17 13:34:25;;;;;;;;;;;11.80;99.90;;;;;;5114155;28;19908;-41
2022/03/17 13:36:53;;;;;;;;;;;11.60;99.90;;;;;;5113246;28;20450;-41
2022/03/17 13:39:19;;;;;;;;;;;11.10;99.90;;;;;;5113796;28;19908;-41
2022/03/17 13:41:57;;;;;;;;;;;11.10;99.90;;;;;;5113944;28;19908;-42
2022/03/17 13:44:22;;;;;;;;;;;11.10;99.90;;;;;;5113708;28;19961;-41
2022/03/17 13:46:48;;;;;;;;;;;11.30;99.90;;;;;;5113621;28;19908;-43
2022/03/17 13:49:23;;;;;;;;;;;11.40;99.90;;;;;;5112900;28;20312;-40
2022/03/17 13:51:51;;;;;;;;;;;11.50;99.90;;;;;;5112533;28;20015;-42
2022/03/17 13:54:17;;;;;;;;;;;11.40;99.90;;;;;;5112973;28;19966;-41
2022/03/17 13:56:43;;;;;;;;;;;11.50;99.90;;;;;;5113392;28;19939;-41
2022/03/17 13:59:12;;;;;;;;;;;11.40;99.90;;;;;;5112359;28;19955;-42
2022/03/17 14:01:38;;;;;;;;;;;11.30;99.90;;;;;;5113584;28;19914;-42
2022/03/17 14:04:03;;;;;;;;;;;11.10;99.90;;;;;;5113471;28;19911;-41
2022/03/17 14:06:29;;;;;;;;;;;10.80;99.90;;;;;;5113588;28;19912;-41
2022/03/17 14:08:56;;;;;;;;;;;10.80;99.90;;;;;;5111890;28;19943;-41
2022/03/17 14:11:26;;;;;;;;;;;11.00;99.90;;;;;;5113086;28;19912;-41
2022/03/17 14:13:54;;;;;;;;;;;11.10;99.90;;;;;;5113118;28;20255;-44
2022/03/17 14:16:20;;;;;;;;;;;11.00;99.90;;;;;;5112058;28;19907;-41
2022/03/17 14:18:47;;;;;;;;;;;10.70;99.90;;;;;;5113134;28;20361;-41
2022/03/17 14:21:13;;;;;;;;;;;10.60;99.90;;;;;;5113174;28;19908;-49
2022/03/17 14:26:25;;;;;;;;;;;10.50;99.90;;;;;;5113414;28;19915;-41
2022/03/17 14:28:50;;;;;;;;;;;10.50;99.90;;;;;;5111663;28;20382;-42
2022/03/17 14:31:17;;;;;;;;;;;10.70;99.90;;;;;;5112857;28;19986;-40
2022/03/17 14:33:47;;;;;;;;;;;10.40;99.90;;;;;;5112940;28;19911;-41
2022/03/17 14:36:13;;;;;;;;;;;10.30;99.90;;;;;;5112036;28;20309;-42
2022/03/17 14:38:39;;;;;;;;;;;10.30;99.90;;;;;;5113246;28;20008;-41
2022/03/17 14:41:06;;;;;;;;;;;10.30;99.90;;;;;;5113192;28;20277;-41
2022/03/17 14:43:32;;;;;;;;;;;10.40;99.90;;;;;;5113276;28;19907;-41
2022/03/17 14:45:57;;;;;;;;;;;10.30;99.90;;;;;;5111809;28;19953;-41